Atlantic - Newfoundland: Past 24 Hour Conditions

 

Mary's Harbour

06:30 PM NST 28 January 2015
Disclaimer

This table is a summary of hourly weather conditions for the past 24 hours.
Please note that these observations might not always be representative of weather conditions over their associated marine area.

Date / Time
(NST)
Wind(knots) Conditions Visibility(km) Pressure(kPa) Air tempC) Relative humidity(%) Dew pointC) Wind Chill
28 January 2015
18:30 NNW 9 Light Freezing Rain 4 101.0 -8 94 -9 -15
17:30 N 9 Light Freezing Rain 3 101.1 -8 94 -9 -15
16:30 NNW 9 gust 17 Light Snow 2 101.1 -8 94 -8 -14
15:30 N 13 gust 19 Light Snow 2 101.1 -8 92 -9 -16
14:30 N 11 gust 20 Light Snow 4 101.2 -8 90 -10 -16
13:30 N 11 gust 21 Light Snow 13 101.3 -9 85 -11 -16
12:30 N 8 gust 15 Light Snow 2 101.4 -10 87 -12 -17
11:30 N 9 Light Snow 2 101.6 -12 86 -14 -20
10:30 NNW 9 Light Snow 0.6 101.6 -14 87 -15 -21
9:30 NNW 9 Light Snow 0.4 101.8 -14 87 -16 -22
8:30 N 12 gust 20 Light Snow 1 101.8 -13 89 -14 -21
7:30 NNE 14 gust 21 Light Snow 1 101.7 -13 87 -14 -22
6:30 N 14 gust 20 Light Snow 2 101.9 -13 85 -15 -23
5:30 NNE 12 gust 18 Light Snow 5 102.0 -14 84 -16 -23
4:30 NNE 10 gust 19 Light Snow 16 102.2 -14 84 -16 -22
3:30 NNE 11 gust 16 Light Snow 4 102.4 -14 84 -16 -23
2:30 NNW 8 Light Snow 2 102.5 -17 83 -20 -26
1:30 NNW 10 gust 15 Light Snow 3 102.7 -18 82 -20 -27
0:30 NNW 10 gust 15 Light Snow 5 102.7 -18 81 -20 -27
27 January 2015
23:30 NNW 9 Light Snow 2 102.8 -18 82 -21 -27
22:30 NW 5 Light Snow 2 103.0 -18 82 -21 -25
21:30 NNW 11 Light Snow 2 103.0 -18 75 -21 -28
20:30 NNW 7 gust 15 Cloudy 16 103.0 -18 62 -23 -26
19:30 NNW 6 Cloudy 16 103.1 -18 57 -25 -26
18:30 NW 6 Cloudy 16 103.2 -19 55 -26 -26
Map of Atlantic - Newfoundland marine weather areas Southwestern Grand Banks - 44138 Banquereau - 44139 Tail of the Bank - 44140 Nickerson Bank - 44251 Northeast Burgeo Bank - 44255 Blanc-Sablon Airport Cap Whittle Chevery Natashquan Airport Heath Point Miscou Island Grand Étang Ingonish Beach North Mountain St.Paul Island J.A. Douglas McCurdy Sydney Airport Charlottetown Airport East Point North Cape Argentia Bonavista Burgeo Cape Race Corner Brook Daniel's Harbour Englee Ferolle Point La Scie Port aux Basques Rocky Harbour Sagona Island St. Anthony Airport St. John's Int'l Airport St. Lawrence Stephenville Airport Twillingate Winterland Wreckhouse Cartwright Airport Mary's Harbour Grates Cove Pool's Island Marticot Island Long Pond Îles de la Madeleine Airport
Legend:
buoy Buoy
land station Land Station

Atlantic - Newfoundland Area

Another Region

What we are doing

Date modified: